Time;durP1;ratioP1;P1;durP2;ratioP2;P2;SDS_P1;SDS_P2;PMS_P1;PMS_P2;Temp;Humidity;BMP_temperature;BMP_pressure;BME280_temperature;BME280_humidity;BME280_pressure;Samples;Min_cycle;Max_cycle;Signal;HPM_P1;HPM_P2
2022/03/26 00:00:29;;;;;;;62.47;31.80;;;;;;;-146.64;100.00;95486.84;4997372;28;20030;-81
2022/03/26 00:02:56;;;;;;;69.93;33.17;;;;;;;-146.64;100.00;94689.88;4982762;28;20038;-81
2022/03/26 00:05:21;;;;;;;60.38;32.58;;;;;;;-146.64;100.00;94158.66;5017522;28;20500;-81
2022/03/26 00:07:46;;;;;;;72.20;33.03;;;;;;;-146.64;100.00;93627.50;5015399;28;20018;-79
2022/03/26 00:10:12;;;;;;;62.55;32.35;;;;;;;-146.64;100.00;94955.53;5017625;28;20048;-80
2022/03/26 00:12:41;;;;;;;64.90;33.25;;;;;;;-146.64;100.00;97081.25;5001354;28;20029;-81
2022/03/26 00:15:12;;;;;;;64.30;33.65;;;;;;;-146.64;100.00;98144.53;5032630;28;20025;-80
2022/03/26 00:17:37;;;;;;;62.50;31.52;;;;;;;-146.64;100.00;97081.25;5020381;28;20033;-81
2022/03/26 00:20:04;;;;;;;66.00;33.17;;;;;;;-146.64;100.00;96283.97;5022548;28;20036;-80
2022/03/26 00:22:30;;;;;;;56.25;30.83;;;;;;;-146.64;100.00;97612.84;5039718;28;20114;-80
2022/03/26 00:24:56;;;;;;;65.95;31.15;;;;;;;-146.64;100.00;98410.41;5015236;28;20053;-81
2022/03/26 00:27:21;;;;;;;64.97;30.52;;;;;;;-146.64;100.00;98410.41;5024818;28;20049;-81
2022/03/26 00:29:47;;;;;;;60.90;32.65;;;;;;;-146.64;100.00;97612.84;5022900;28;20030;-81
2022/03/26 00:32:12;;;;;;;67.85;30.35;;;;;;;-146.64;100.00;97347.03;5034929;28;20040;-80
2022/03/26 00:34:38;;;;;;;69.47;32.42;;;;;;;-146.64;100.00;97612.84;5020545;28;20029;-81
2022/03/26 00:37:05;;;;;;;55.83;30.73;;;;;;;-146.64;100.00;98410.41;5043595;28;20167;-81
2022/03/26 00:39:31;;;;;;;57.88;29.42;;;;;;;-146.64;100.00;98144.53;5025770;28;20078;-81
2022/03/26 00:41:57;;;;;;;66.80;31.23;;;;;;;-146.64;100.00;98676.28;5014998;28;20028;-81
2022/03/26 00:44:22;;;;;;;60.80;30.65;;;;;;;-146.64;100.00;99474.03;5026466;28;20022;-80
2022/03/26 00:46:49;;;;;;;73.00;32.00;;;;;;;-146.64;100.00;98942.19;5012581;28;20029;-81
2022/03/26 00:49:15;;;;;;;59.42;32.53;;;;;;;-146.64;100.00;99208.09;5027973;28;20057;-81
2022/03/26 00:51:41;;;;;;;64.75;30.95;;;;;;;-146.64;100.00;98942.19;5023697;28;20481;-81
2022/03/26 00:54:08;;;;;;;70.28;30.90;;;;;;;-146.64;100.00;99208.09;5023196;28;20026;-80
2022/03/26 00:56:40;;;;;;;67.00;30.98;;;;;;;-146.64;100.00;98942.19;5008545;28;20030;-81
2022/03/26 00:59:06;;;;;;;66.78;33.53;;;;;;;-146.64;100.00;99208.09;5005971;28;20033;-80
2022/03/26 01:01:32;;;;;;;65.10;31.55;;;;;;;-146.64;100.00;99208.09;5026190;28;20458;-80
2022/03/26 01:04:00;;;;;;;63.67;31.80;;;;;;;-146.64;100.00;98942.19;5022979;28;20028;-80
2022/03/26 01:06:26;;;;;;;63.88;31.65;;;;;;;-146.64;100.00;100005.94;5005754;28;20043;-81
2022/03/26 01:08:52;;;;;;;62.20;31.03;;;;;;;-146.64;100.00;100005.94;5012228;28;20481;-80
2022/03/26 01:11:19;;;;;;;58.17;32.00;;;;;;;-146.64;100.00;100271.94;4990800;28;20049;-81
2022/03/26 01:13:45;;;;;;;69.68;32.50;;;;;;;-146.64;100.00;100537.94;5034930;28;20119;-80
2022/03/26 01:16:12;;;;;;;60.85;31.75;;;;;;;-146.64;100.00;100005.94;5009298;28;20033;-80
2022/03/26 01:18:38;;;;;;;61.05;31.58;;;;;;;-146.64;100.00;100271.94;5019115;28;20388;-81
2022/03/26 01:21:03;;;;;;;73.70;32.35;;;;;;;-146.64;100.00;100803.97;5019276;28;20054;-81
2022/03/26 01:23:29;;;;;;;60.65;33.08;;;;;;;-146.64;100.00;100537.94;5034330;28;20464;-80
2022/03/26 01:25:54;;;;;;;70.17;32.93;;;;;;;-146.64;100.00;101070.00;5007333;28;20030;-80
2022/03/26 01:28:20;;;;;;;74.78;34.58;;;;;;;-146.64;100.00;100803.97;5023672;28;20048;-81
2022/03/26 01:30:46;;;;;;;65.35;33.70;;;;;;;-146.64;100.00;100803.97;5021013;28;20425;-80
2022/03/26 01:33:11;;;;;;;72.17;33.70;;;;;;;-146.64;100.00;100271.94;5028722;28;20077;-81
2022/03/26 01:35:37;;;;;;;72.15;31.77;;;;;;;-146.64;100.00;100537.94;5000964;28;20030;-81
2022/03/26 01:38:05;;;;;;;56.22;31.58;;;;;;;-146.64;100.00;100803.97;5018004;28;20034;-81
2022/03/26 01:40:30;;;;;;;64.68;33.17;;;;;;;-146.64;100.00;101070.00;5005977;28;20555;-81
2022/03/26 01:42:56;;;;;;;70.07;30.83;;;;;;;-146.64;100.00;100537.94;5021162;28;20022;-81
2022/03/26 01:45:21;;;;;;;60.13;32.15;;;;;;;-146.64;100.00;101336.06;5023669;28;20030;-80
2022/03/26 01:47:46;;;;;;;66.85;31.05;;;;;;;-146.64;100.00;100537.94;5020648;28;20396;-81
2022/03/26 01:50:13;;;;;;;57.45;32.03;;;;;;;-146.64;100.00;100005.94;5006923;28;20028;-80
2022/03/26 01:52:38;;;;;;;64.20;29.27;;;;;;;-146.64;100.00;99474.03;5036118;28;20393;-81
2022/03/26 01:55:05;;;;;;;66.50;30.00;;;;;;;-146.64;100.00;99208.09;5020281;28;20044;-81
2022/03/26 01:57:30;;;;;;;63.58;31.45;;;;;;;-146.64;100.00;99208.09;5021412;28;20030;-81
2022/03/26 01:59:57;;;;;;;53.95;29.58;;;;;;;-146.64;100.00;99208.09;5001249;28;20504;-81
2022/03/26 02:02:23;;;;;;;58.70;30.48;;;;;;;-146.64;100.00;99208.09;5018152;28;20082;-81
2022/03/26 02:04:49;;;;;;;57.67;29.42;;;;;;;-146.64;100.00;99739.97;5010645;28;20034;-81
2022/03/26 02:07:14;;;;;;;55.17;30.23;;;;;;;-146.64;100.00;99208.09;5020757;28;20056;-80
2022/03/26 02:09:39;;;;;;;64.93;30.00;;;;;;;-146.64;100.00;99739.97;5010183;28;20021;-80
2022/03/26 02:12:27;;;;;;;65.65;29.70;;;;;;;-146.64;100.00;99208.09;5018805;28;20026;-79
2022/03/26 02:14:53;;;;;;;53.10;28.35;;;;;;;-146.64;100.00;98942.19;5020241;28;20133;-80
2022/03/26 02:17:19;;;;;;;56.28;28.33;;;;;;;-146.64;100.00;99208.09;5023188;28;20029;-80
2022/03/26 02:19:57;;;;;;;58.55;27.65;;;;;;;-146.64;100.00;99474.03;5009242;28;20055;-80
2022/03/26 02:22:24;;;;;;;61.55;29.77;;;;;;;-146.64;100.00;98942.19;5031610;28;20064;-81
2022/03/26 02:24:49;;;;;;;56.85;28.80;;;;;;;-146.64;100.00;98942.19;5003944;28;20034;-79
2022/03/26 02:27:15;;;;;;;62.00;29.60;;;;;;;-146.64;100.00;98410.41;5004302;28;20040;-81
2022/03/26 02:29:40;;;;;;;52.20;27.77;;;;;;;-146.64;100.00;98144.53;5019664;28;20113;-81
2022/03/26 02:32:07;;;;;;;62.75;28.58;;;;;;;-146.64;100.00;98144.53;5019893;28;20056;-80
2022/03/26 02:34:32;;;;;;;57.53;28.13;;;;;;;-146.64;100.00;98410.41;5024229;28;20022;-81
2022/03/26 02:36:58;;;;;;;65.80;29.20;;;;;;;-146.64;100.00;97612.84;5039849;28;20395;-81
2022/03/26 02:39:25;;;;;;;58.83;28.13;;;;;;;-146.64;100.00;98144.53;5005185;28;20022;-81
2022/03/26 02:41:50;;;;;;;67.22;30.30;;;;;;;-146.64;100.00;98144.53;5004342;28;20045;-80
2022/03/26 02:44:16;;;;;;;60.00;27.00;;;;;;;-146.64;100.00;97878.69;5017549;28;20034;-81
2022/03/26 02:46:43;;;;;;;67.68;29.02;;;;;;;-146.64;100.00;98676.28;5004392;28;20026;-80
2022/03/26 02:49:08;;;;;;;60.75;28.70;;;;;;;-146.64;100.00;98942.19;5019264;28;20030;-80
2022/03/26 02:51:34;;;;;;;54.63;28.65;;;;;;;-146.64;100.00;99208.09;5023454;28;20044;-81
2022/03/26 02:53:59;;;;;;;60.72;30.17;;;;;;;-146.64;100.00;99208.09;5009101;28;20025;-81
2022/03/26 02:56:24;;;;;;;70.50;30.92;;;;;;;-146.64;100.00;98942.19;5036840;28;20029;-81
2022/03/26 02:58:50;;;;;;;68.40;29.52;;;;;;;-146.64;100.00;99739.97;5021005;28;20428;-80
2022/03/26 03:01:16;;;;;;;67.20;31.83;;;;;;;-146.64;100.00;99474.03;5019937;28;20068;-81
2022/03/26 03:03:41;;;;;;;59.38;29.58;;;;;;;-146.64;100.00;100537.94;5013463;28;20061;-80
2022/03/26 03:06:06;;;;;;;60.42;31.02;;;;;;;-146.64;100.00;100005.94;5001916;28;20160;-80
2022/03/26 03:08:33;;;;;;;60.20;30.65;;;;;;;-146.64;100.00;100005.94;4992245;28;20026;-81
2022/03/26 03:10:58;;;;;;;77.00;33.08;;;;;;;-146.64;100.00;100803.97;5019797;28;20025;-81
2022/03/26 03:13:23;;;;;;;63.53;30.80;;;;;;;-146.64;100.00;100803.97;5007811;28;20129;-81
2022/03/26 03:15:50;;;;;;;71.35;32.90;;;;;;;-146.64;100.00;101602.13;5019407;28;20084;-81
2022/03/26 03:18:15;;;;;;;63.50;30.77;;;;;;;-146.64;100.00;101868.22;5017271;28;20064;-81
2022/03/26 03:20:40;;;;;;;67.82;30.98;;;;;;;-146.64;100.00;101602.13;5003728;28;20612;-80
2022/03/26 03:23:07;;;;;;;57.10;30.35;;;;;;;-146.64;100.00;101868.22;4999108;28;20042;-79
2022/03/26 03:25:33;;;;;;;66.32;31.40;;;;;;;-146.64;100.00;101602.13;4992028;28;20049;-80
2022/03/26 03:27:58;;;;;;;58.92;29.15;;;;;;;-146.64;100.00;100537.94;5011092;28;20030;-80
2022/03/26 03:30:26;;;;;;;59.05;30.10;;;;;;;-146.64;100.00;100271.94;5003537;28;20276;-80
2022/03/26 03:32:52;;;;;;;67.00;31.08;;;;;;;-146.64;100.00;100537.94;5017260;28;20029;-81
2022/03/26 03:35:18;;;;;;;61.92;30.45;;;;;;;-146.64;100.00;100271.94;5026979;28;20123;-80
2022/03/26 03:37:43;;;;;;;57.00;29.83;;;;;;;-146.64;100.00;99739.97;5002807;28;20041;-81
2022/03/26 03:40:09;;;;;;;65.88;31.48;;;;;;;-146.64;100.00;99739.97;5021914;28;20053;-81
2022/03/26 03:42:35;;;;;;;63.72;29.05;;;;;;;-146.64;100.00;99739.97;5009156;28;20087;-80
2022/03/26 03:45:00;;;;;;;61.70;30.90;;;;;;;-146.64;100.00;100005.94;5005004;28;20086;-80
2022/03/26 03:47:26;;;;;;;59.03;29.88;;;;;;;-146.64;100.00;99739.97;5021795;28;20040;-80
2022/03/26 03:49:51;;;;;;;61.38;29.40;;;;;;;-146.64;100.00;98676.28;5004968;28;20025;-80
2022/03/26 03:52:17;;;;;;;68.25;30.70;;;;;;;-146.64;100.00;98676.28;5022660;28;20054;-80
2022/03/26 03:54:42;;;;;;;65.88;29.88;;;;;;;-146.64;100.00;98144.53;5022195;28;20030;-81
2022/03/26 03:57:08;;;;;;;62.42;30.17;;;;;;;-146.64;100.00;98144.53;5004903;28;20021;-80
2022/03/26 03:59:33;;;;;;;65.43;29.30;;;;;;;-146.64;100.00;97612.84;5022530;28;20045;-80
2022/03/26 04:01:58;;;;;;;63.25;29.25;;;;;;;-146.64;100.00;98144.53;5020354;28;20034;-81
2022/03/26 04:04:24;;;;;;;65.20;31.25;;;;;;;-146.64;100.00;97878.69;5005061;28;20117;-80
2022/03/26 04:06:49;;;;;;;65.22;29.88;;;;;;;-146.64;100.00;97612.84;5005759;28;20044;-80
2022/03/26 04:09:15;;;;;;;61.78;31.23;;;;;;;-146.64;100.00;98144.53;5003772;28;20503;-79
2022/03/26 04:11:40;;;;;;;71.68;31.27;;;;;;;-146.64;100.00;97612.84;5007604;28;20089;-82
2022/03/26 04:14:06;;;;;;;65.68;30.70;;;;;;;-146.64;100.00;98676.28;5006903;28;20033;-80
2022/03/26 04:16:33;;;;;;;66.50;30.25;;;;;;;-146.64;100.00;98410.41;5035608;28;20061;-80
2022/03/26 04:18:59;;;;;;;72.40;30.15;;;;;;;-146.64;100.00;98410.41;5005582;28;20033;-80
2022/03/26 04:21:25;;;;;;;66.20;32.05;;;;;;;-146.64;100.00;98676.28;5021004;28;20522;-80
2022/03/26 04:23:51;;;;;;;65.30;30.55;;;;;;;-146.64;100.00;98676.28;5030347;28;20029;-80
2022/03/26 04:26:16;;;;;;;69.22;30.25;;;;;;;-146.64;100.00;98410.41;5032227;28;20131;-80
2022/03/26 04:28:41;;;;;;;65.18;29.70;;;;;;;-146.64;100.00;97878.69;5016601;28;20030;-81
2022/03/26 04:31:08;;;;;;;63.20;30.42;;;;;;;-146.64;100.00;97612.84;5000960;28;20054;-80
2022/03/26 04:33:33;;;;;;;59.70;30.02;;;;;;;-146.64;100.00;97878.69;5002304;28;20038;-79
2022/03/26 04:35:59;;;;;;;66.07;30.52;;;;;;;-146.64;100.00;98676.28;5003489;28;20121;-79
2022/03/26 04:38:24;;;;;;;62.10;29.98;;;;;;;-146.64;100.00;98676.28;5019724;28;20116;-80
2022/03/26 04:40:50;;;;;;;62.33;31.02;;;;;;;-146.64;100.00;97612.84;5004293;28;20034;-80
2022/03/26 04:43:18;;;;;;;65.72;29.92;;;;;;;-146.64;100.00;98410.41;5020568;28;20030;-80
2022/03/26 04:45:44;;;;;;;64.65;31.60;;;;;;;-146.64;100.00;98410.41;5023945;28;20092;-81
2022/03/26 04:48:11;;;;;;;60.17;30.08;;;;;;;-146.64;100.00;98144.53;5006777;28;20041;-80
2022/03/26 04:50:36;;;;;;;70.55;32.10;;;;;;;-146.64;100.00;98410.41;5014139;28;20045;-80
2022/03/26 04:53:03;;;;;;;63.92;30.48;;;;;;;-146.64;100.00;98144.53;5018315;28;20034;-79
2022/03/26 04:55:28;;;;;;;;;;;;;;;-146.64;100.00;98144.53;5019173;28;20029;-80
2022/03/26 04:57:55;;;;;;;69.30;29.65;;;;;;;-146.64;100.00;97347.03;5040191;28;19974;-80
2022/03/26 05:00:22;;;;;;;;;;;;;;;-146.64;100.00;97347.03;5008529;28;20093;-79
2022/03/26 05:02:47;;;;;;;64.35;28.95;;;;;;;-146.64;100.00;96815.47;5012917;28;19980;-82
2022/03/26 05:05:15;;;;;;;67.50;30.00;;;;;;;-146.64;100.00;97081.25;5017049;28;20117;-81
2022/03/26 05:07:47;;;;;;;62.90;31.30;;;;;;;-146.64;100.00;97612.84;4988222;28;20089;-80
2022/03/26 05:10:14;;;;;;;68.72;32.63;;;;;;;-146.64;100.00;98676.28;5002760;28;20193;-80
2022/03/26 05:12:41;;;;;;;74.22;32.20;;;;;;;-146.64;100.00;98942.19;5006599;28;20033;-80
2022/03/26 05:15:06;;;;;;;71.25;35.28;;;;;;;-146.64;100.00;98144.53;5023449;28;20034;-80
2022/03/26 05:17:32;;;;;;;79.88;33.95;;;;;;;-146.64;100.00;99474.03;5023100;28;20045;-80
2022/03/26 05:19:57;;;;;;;64.65;32.35;;;;;;;-146.64;100.00;98676.28;5021348;28;20030;-80
2022/03/26 05:22:22;;;;;;;70.20;33.08;;;;;;;-146.64;100.00;99208.09;5027344;28;20089;-80
2022/03/26 05:24:47;;;;;;;67.90;34.88;;;;;;;-146.64;100.00;100005.94;5011152;28;20044;-80
2022/03/26 05:27:13;;;;;;;74.43;33.15;;;;;;;-146.64;100.00;100005.94;4988891;28;20036;-80
2022/03/26 05:29:38;;;;;;;71.03;33.58;;;;;;;-146.64;100.00;99208.09;5004439;28;20053;-80
2022/03/26 05:32:06;;;;;;;71.75;33.78;;;;;;;-146.64;100.00;98676.28;5019365;28;20038;-80
2022/03/26 05:34:31;;;;;;;71.35;32.97;;;;;;;-146.64;100.00;98144.53;4998127;28;20070;-80
2022/03/26 05:36:58;;;;;;;69.32;33.55;;;;;;;-146.64;100.00;97878.69;5020988;28;20042;-80
2022/03/26 05:39:24;;;;;;;69.20;33.38;;;;;;;-146.64;100.00;96815.47;5021307;28;20032;-80
2022/03/26 05:41:49;;;;;;;70.47;34.63;;;;;;;-146.64;100.00;96549.72;5016340;28;20089;-80
2022/03/26 05:44:14;;;;;;;70.95;34.92;;;;;;;-146.64;100.00;97081.25;5020232;28;20293;-79
2022/03/26 05:46:40;;;;;;;76.72;34.88;;;;;;;-146.64;100.00;96549.72;5004502;28;20124;-81
2022/03/26 05:49:05;;;;;;;76.53;35.28;;;;;;;-146.64;100.00;95221.19;5028177;28;20080;-80
2022/03/26 05:51:30;;;;;;;73.78;33.50;;;;;;;-146.64;100.00;94158.66;5014754;28;20033;-80
2022/03/26 05:53:55;;;;;;;76.72;36.42;;;;;;;-146.64;100.00;96018.25;5004649;28;20015;-80
2022/03/26 05:56:21;;;;;;;70.82;34.60;;;;;;;-146.64;100.00;97081.25;5021058;28;20060;-80
2022/03/26 05:58:46;;;;;;;70.28;35.45;;;;;;;-146.64;100.00;97081.25;5027812;28;20080;-80
2022/03/26 06:01:11;;;;;;;81.05;37.10;;;;;;;-146.64;100.00;96283.97;5008445;28;20105;-79
2022/03/26 06:03:37;;;;;;;80.85;36.17;;;;;;;-146.64;100.00;95221.19;5018014;28;20069;-80
2022/03/26 06:06:02;;;;;;;69.90;35.10;;;;;;;-146.64;100.00;94158.66;5005366;28;20205;-80
2022/03/26 06:08:27;;;;;;;74.38;36.42;;;;;;;-146.64;100.00;93627.50;5002645;28;20384;-80
2022/03/26 06:10:53;;;;;;;75.28;36.05;;;;;;;-146.64;100.00;92299.94;5002361;28;20022;-80
2022/03/26 06:13:18;;;;;;;77.60;37.13;;;;;;;-146.64;100.00;91769.03;5008183;28;20100;-80
2022/03/26 06:15:43;;;;;;;81.47;35.72;;;;;;;-146.64;100.00;91769.03;5000721;28;20089;-79
2022/03/26 06:18:09;;;;;;;83.97;36.80;;;;;;;-146.64;100.00;90972.78;5022074;28;20113;-79
2022/03/26 06:20:35;;;;;;;75.00;36.83;;;;;;;-146.64;100.00;89380.81;5009516;28;20029;-79
2022/03/26 06:23:00;;;;;;;75.72;38.42;;;;;;;-146.64;100.00;87789.44;4998866;28;20790;-79
2022/03/26 06:25:26;;;;;;;78.25;37.08;;;;;;;-146.64;100.00;86728.88;5010967;28;20051;-79
2022/03/26 06:27:51;;;;;;;81.32;38.50;;;;;;;-146.64;100.00;85668.59;5013732;28;20033;-79
2022/03/26 06:30:16;;;;;;;75.20;36.92;;;;;;;-146.64;100.00;84608.59;4998276;28;20033;-79
2022/03/26 06:32:42;;;;;;;69.75;33.80;;;;;;;-146.64;100.00;85138.56;5014941;28;20091;-79
2022/03/26 06:35:08;;;;;;;76.38;38.47;;;;;;;-146.64;100.00;84873.56;5008546;28;20022;-79
2022/03/26 06:37:34;;;;;;;75.30;39.40;;;;;;;-146.64;100.00;84873.56;4994209;28;20037;-79
2022/03/26 06:39:59;;;;;;;76.13;36.33;;;;;;;-146.64;100.00;84608.59;5006251;28;20026;-79
2022/03/26 06:42:25;;;;;;;70.03;36.80;;;;;;;-146.64;100.00;83813.78;4997597;28;20026;-79
2022/03/26 06:44:51;;;;;;;81.28;39.40;;;;;;;-146.64;100.00;82754.28;4995643;28;20018;-79
2022/03/26 06:47:16;;;;;;;83.85;38.25;;;;;;;-146.64;100.00;80900.81;4998186;28;20451;-78
2022/03/26 06:49:42;;;;;;;81.95;37.50;;;;;;;-146.64;100.00;79048.19;5028097;28;20472;-79
2022/03/26 06:52:08;;;;;;;84.53;39.83;;;;;;;-146.64;100.00;77196.41;5020830;28;20037;-79
2022/03/26 06:54:33;;;;;;;81.43;41.40;;;;;;;-146.64;100.00;75609.88;4991344;28;20021;-78
2022/03/26 06:56:59;;;;;;;82.80;38.42;;;;;;;-146.64;100.00;75081.16;5018901;28;20028;-79
2022/03/26 06:59:25;;;;;;;85.13;40.88;;;;;;;-146.64;100.00;73495.47;4994456;28;20785;-79
2022/03/26 07:01:50;;;;;;;75.07;37.78;;;;;;;-146.64;100.00;70854.00;5013976;28;20059;-79
2022/03/26 07:04:15;;;;;;;83.65;40.42;;;;;;;-146.64;100.00;70325.94;4994871;28;20026;-78
2022/03/26 07:06:41;;;;;;;79.97;38.55;;;;;;;-146.64;100.00;61359.25;5016890;28;20026;-78
2022/03/26 07:09:06;;;;;;;78.68;39.17;;;;;;;-146.64;100.00;52753.63;5014126;28;20049;-79
2022/03/26 07:11:33;;;;;;;84.20;39.78;;;;;;;-146.64;100.00;45316.38;5012334;28;20487;-79
2022/03/26 07:13:58;;;;;;;80.28;40.13;;;;;;;-146.64;100.00;43742.50;4991594;28;20052;-78
2022/03/26 07:16:23;;;;;;;80.70;38.47;;;;;;;-146.64;100.00;41999.28;5016278;28;20033;-79
2022/03/26 07:18:49;;;;;;;83.70;37.95;;;;;;;-146.64;100.00;41305.06;4992417;28;20108;-79
2022/03/26 07:21:14;;;;;;;75.47;37.53;;;;;;;-146.64;100.00;41098.25;5010892;28;20046;-79
2022/03/26 07:23:40;;;;;;;76.70;38.97;;;;;;;-146.64;100.00;40807.53;4993220;28;20113;-79
2022/03/26 07:26:05;;;;;;;79.25;39.47;;;;;;;-146.64;100.00;40479.97;5010232;28;20018;-79
2022/03/26 07:28:30;;;;;;;74.72;38.53;;;;;;;-146.64;100.00;40414.44;5025854;28;20906;-79
2022/03/26 07:30:56;;;;;;;69.80;37.03;;;;;;;-146.64;100.00;40332.56;4994008;28;20026;-79
2022/03/26 07:33:21;;;;;;;87.85;38.80;;;;;;;-146.64;100.00;40209.75;4996983;28;20029;-79
2022/03/26 07:35:46;;;;;;;74.25;37.58;;;;;;;-146.64;100.00;40021.41;5009042;28;20145;-77
2022/03/26 07:38:12;;;;;;;76.03;39.03;;;;;;;-146.64;100.00;39816.72;4997343;28;20030;-77
2022/03/26 07:40:37;;;;;;;75.78;37.70;;;;;;;-146.64;100.00;39755.31;4993943;28;20034;-77
2022/03/26 07:43:03;;;;;;;78.88;37.45;;;;;;;-146.64;100.00;39710.28;5013906;28;20113;-77
2022/03/26 07:45:28;;;;;;;68.55;35.33;;;;;;;-146.64;100.00;39652.97;5009106;28;20124;-77
2022/03/26 07:47:54;;;;;;;76.53;37.35;;;;;;;-146.64;100.00;39669.34;5011863;28;20037;-78
2022/03/26 07:50:19;;;;;;;72.20;37.40;;;;;;;-146.64;100.00;39640.69;4986351;28;20022;-77
2022/03/26 07:52:44;;;;;;;72.07;36.55;;;;;;;-146.64;100.00;39612.03;5010171;28;20080;-78
2022/03/26 07:55:10;;;;;;;72.80;35.38;;;;;;;-146.64;100.00;39597.72;5003753;28;20537;-77
2022/03/26 07:57:36;;;;;;;75.50;35.28;;;;;;;-146.64;100.00;39583.38;5005786;28;20021;-77
2022/03/26 08:00:03;;;;;;;76.68;37.28;;;;;;;-146.64;100.00;39573.16;4987129;28;20030;-77
2022/03/26 08:02:28;;;;;;;75.03;36.47;;;;;;;-146.64;100.00;39538.34;5006283;28;20138;-78
2022/03/26 08:04:53;;;;;;;64.25;33.83;;;;;;;-146.64;100.00;39476.97;5001356;28;20089;-77
2022/03/26 08:07:21;;;;;;;74.00;34.87;;;;;;;-146.64;100.00;39517.91;5002400;28;20469;-78
2022/03/26 08:09:46;;;;;;;71.43;33.30;;;;;;;-146.64;100.00;39505.63;5005154;28;20026;-77
2022/03/26 08:12:12;;;;;;;63.70;32.85;;;;;;;-146.64;100.00;39517.91;4993219;28;20051;-78
2022/03/26 08:14:37;;;;;;;77.82;31.35;;;;;;;-146.64;100.00;39436.03;4991677;28;20354;-78
2022/03/26 08:17:03;;;;;;;67.05;30.70;;;;;;;-146.64;100.00;39395.09;5001710;28;20030;-78
2022/03/26 08:19:28;;;;;;;60.77;31.17;;;;;;;-146.64;100.00;39415.56;5007545;28;20023;-79
2022/03/26 08:21:54;;;;;;;63.10;31.10;;;;;;;-146.64;100.00;39403.28;4993262;28;20682;-78
2022/03/26 08:24:19;;;;;;;60.72;32.08;;;;;;;-146.64;100.00;39386.91;5009754;28;20030;-78
2022/03/26 08:26:45;;;;;;;62.88;30.27;;;;;;;-146.64;100.00;39356.22;5009927;28;20126;-78
2022/03/26 08:29:10;;;;;;;60.35;29.23;;;;;;;-146.64;100.00;39282.53;4998130;28;20025;-78
2022/03/26 08:31:35;;;;;;;68.30;31.60;;;;;;;-146.64;100.00;39288.66;5014260;28;20026;-78
2022/03/26 08:34:01;;;;;;;60.10;30.52;;;;;;;-146.64;100.00;39284.56;4999610;28;20093;-78
2022/03/26 08:36:27;;;;;;;51.43;28.20;;;;;;;-146.64;100.00;39255.94;5013267;28;20022;-78
2022/03/26 08:38:52;;;;;;;53.77;27.93;;;;;;;-146.64;100.00;39231.38;5005735;28;20079;-78
2022/03/26 08:41:21;;;;;;;58.20;29.30;;;;;;;-146.64;100.00;39186.34;4996034;28;20080;-78
2022/03/26 08:43:48;;;;;;;57.55;27.83;;;;;;;-146.64;100.00;39174.06;5012215;28;20091;-78
2022/03/26 08:46:13;;;;;;;59.78;29.02;;;;;;;-146.64;100.00;39184.28;5012485;28;20045;-78
2022/03/26 08:48:39;;;;;;;56.37;28.53;;;;;;;-146.64;100.00;39129.03;5013879;28;20475;-78
2022/03/26 08:51:04;;;;;;;56.63;29.17;;;;;;;-146.64;100.00;39120.84;5005856;28;20143;-78
2022/03/26 08:53:30;;;;;;;60.47;29.53;;;;;;;-146.64;100.00;39079.91;5009920;28;20034;-78
2022/03/26 08:55:55;;;;;;;56.10;29.73;;;;;;;-146.64;100.00;39030.81;4994127;28;20033;-78
2022/03/26 08:58:21;;;;;;;58.03;30.63;;;;;;;-146.64;100.00;39059.47;4989171;28;20037;-78
2022/03/26 09:00:47;;;;;;;52.20;28.10;;;;;;;-146.64;100.00;38998.06;5020643;28;20059;-78
2022/03/26 09:03:14;;;;;;;56.58;27.65;;;;;;;-146.64;100.00;39006.25;5009447;28;20030;-78
2022/03/26 09:05:39;;;;;;;61.65;30.77;;;;;;;-146.64;100.00;38967.38;4996009;28;20034;-79
2022/03/26 09:08:05;;;;;;;51.93;29.13;;;;;;;-146.64;100.00;38955.09;5012894;28;20033;-78
2022/03/26 09:10:30;;;;;;;62.17;28.87;;;;;;;-146.64;100.00;38951.00;5010934;28;20030;-78
2022/03/26 09:12:55;;;;;;;56.83;28.33;;;;;;;-146.64;100.00;38936.66;4998787;28;20025;-78
2022/03/26 09:15:21;;;;;;;68.70;32.73;;;;;;;-146.64;100.00;38910.06;5011752;28;20053;-78
2022/03/26 09:17:46;;;;;;;68.73;29.10;;;;;;;-146.64;100.00;38891.66;5018775;28;20029;-79
2022/03/26 09:20:12;;;;;;;59.67;30.20;;;;;;;-146.64;100.00;38822.06;5011045;28;20394;-79
2022/03/26 09:22:37;;;;;;;60.83;30.23;;;;;;;-146.64;100.00;38834.34;5008199;28;20096;-79
2022/03/26 09:25:04;;;;;;;61.00;30.57;;;;;;;-146.64;98.59;38785.25;5009124;28;20030;-78
2022/03/26 09:27:29;;;;;;;57.35;30.35;;;;;;;-146.64;97.00;38836.41;5020093;28;20390;-79
2022/03/26 09:29:54;;;;;;;69.50;30.40;;;;;;;-146.64;97.86;38813.88;5013666;28;20160;-79
2022/03/26 09:32:20;;;;;;;55.73;30.10;;;;;;;-146.64;99.53;38787.28;5020064;28;20032;-78
2022/03/26 09:34:46;;;;;;;59.13;29.03;;;;;;;-146.64;95.88;38793.44;5015483;28;20057;-78
2022/03/26 09:37:12;;;;;;;57.30;29.27;;;;;;;-146.64;92.09;38699.28;5024087;28;20412;-79
2022/03/26 09:39:38;;;;;;;56.78;29.35;;;;;;;-146.64;89.77;38687.03;5007655;28;20065;-79
2022/03/26 09:42:04;;;;;;;51.73;26.90;;;;;;;-146.64;87.76;38658.38;4996307;28;20085;-79
2022/03/26 09:44:32;;;;;;;59.75;29.27;;;;;;;-146.64;90.04;38687.03;5017974;28;20029;-81
2022/03/26 09:46:58;;;;;;;60.83;28.85;;;;;;;-146.64;88.61;38646.09;5002446;28;20448;-77
2022/03/26 09:49:23;;;;;;;60.20;28.77;;;;;;;-146.64;86.39;38601.06;5008717;28;20030;-78
2022/03/26 09:51:56;;;;;;;50.70;25.80;;;;;;;-146.64;85.58;38588.81;5010960;28;20105;-80
2022/03/26 09:54:24;;;;;;;51.97;26.67;;;;;;;-146.64;83.00;38642.00;5009445;28;20029;-78
2022/03/26 09:56:50;;;;;;;54.58;27.60;;;;;;;-146.64;84.54;38621.53;4998609;28;20026;-81
2022/03/26 09:59:20;;;;;;;54.07;27.60;;;;;;;-146.64;84.34;38578.56;4990671;28;20025;-78
2022/03/26 10:01:46;;;;;;;51.30;27.15;;;;;;;-146.64;82.29;38560.16;5007693;28;20095;-78
2022/03/26 10:04:16;;;;;;;55.93;25.80;;;;;;;-146.64;82.89;38527.41;4995714;28;20416;-79
2022/03/26 10:06:49;;;;;;;53.42;24.52;;;;;;;-146.64;81.53;38543.78;5012198;28;20033;-79
2022/03/26 10:09:46;;;;;;;56.42;27.13;;;;;;;-146.64;80.35;38527.41;5010940;28;20022;-79
2022/03/26 10:12:15;;;;;;;48.97;25.00;;;;;;;-146.64;78.28;38490.59;5005416;28;20030;-79
2022/03/26 10:14:52;;;;;;;48.67;23.60;;;;;;;-146.64;76.85;38443.53;5006572;28;20077;-79
2022/03/26 10:17:30;;;;;;;43.80;23.63;;;;;;;-146.64;77.38;38437.38;5010325;28;20032;-79
2022/03/26 10:20:00;;;;;;;52.13;26.55;;;;;;;-146.64;77.99;38453.75;5008273;28;20497;-79
2022/03/26 10:22:34;;;;;;;40.63;20.42;;;;;;;-146.64;72.98;38457.84;4994649;28;20092;-79
2022/03/26 10:25:08;;;;;;;37.88;21.27;;;;;;;-146.64;75.41;38380.09;5004760;28;20129;-79
2022/03/26 10:27:39;;;;;;;33.08;17.10;;;;;;;-146.64;73.05;38388.28;5014290;28;20026;-79
2022/03/26 10:30:05;;;;;;;39.97;18.50;;;;;;;-146.64;73.09;38380.09;5006571;28;20053;-79
2022/03/26 10:32:39;;;;;;;36.90;19.33;;;;;;;-146.64;76.18;38365.78;5029313;28;20030;-78
2022/03/26 10:35:07;;;;;;;42.58;20.50;;;;;;;-146.64;74.12;38333.03;4993390;28;20069;-79
2022/03/26 10:37:58;;;;;;;34.15;19.50;;;;;;;-146.64;78.70;38363.72;5013367;28;20040;-79
2022/03/26 10:40:35;;;;;;;35.83;18.83;;;;;;;-146.64;75.64;38335.06;5004422;28;20065;-79
2022/03/26 10:43:08;;;;;;;28.65;16.90;;;;;;;-146.64;74.62;38341.22;5011436;28;20129;-79
2022/03/26 10:45:36;;;;;;;29.38;16.95;;;;;;;-146.64;75.63;38326.88;5011802;28;20040;-79
2022/03/26 10:48:07;;;;;;;31.02;18.35;;;;;;;-146.64;76.38;38351.44;5008321;28;20053;-78
2022/03/26 10:50:33;;;;;;;26.58;15.68;;;;;;;-146.64;74.47;38306.44;5006814;28;20045;-79